sensor_id;sensor_type;location;lat;lon;timestamp;P1;durP1;ratioP1;P2;durP2;ratioP2
20884;SDS011;10602;48.000;9.654;2022-10-04T00:03:07;8.10;;;5.10;;
20884;SDS011;10602;48.000;9.654;2022-10-04T00:05:37;8.00;;;5.10;;
20884;SDS011;10602;48.000;9.654;2022-10-04T00:08:22;6.17;;;4.40;;
20884;SDS011;10602;48.000;9.654;2022-10-04T00:10:49;7.13;;;4.50;;
20884;SDS011;10602;48.000;9.654;2022-10-04T00:13:31;5.97;;;4.87;;
20884;SDS011;10602;48.000;9.654;2022-10-04T00:16:02;7.13;;;4.80;;
20884;SDS011;10602;48.000;9.654;2022-10-04T00:18:31;8.17;;;4.63;;
20884;SDS011;10602;48.000;9.654;2022-10-04T00:21:06;7.30;;;4.63;;
20884;SDS011;10602;48.000;9.654;2022-10-04T00:26:10;7.17;;;4.77;;
20884;SDS011;10602;48.000;9.654;2022-10-04T00:28:50;7.53;;;4.73;;
20884;SDS011;10602;48.000;9.654;2022-10-04T00:31:23;8.20;;;5.13;;
20884;SDS011;10602;48.000;9.654;2022-10-04T00:34:43;6.70;;;4.80;;
20884;SDS011;10602;48.000;9.654;2022-10-04T00:41:41;7.03;;;4.97;;
20884;SDS011;10602;48.000;9.654;2022-10-04T00:44:27;7.30;;;5.10;;
20884;SDS011;10602;48.000;9.654;2022-10-04T00:46:56;7.43;;;4.83;;
20884;SDS011;10602;48.000;9.654;2022-10-04T00:49:28;6.70;;;5.10;;
20884;SDS011;10602;48.000;9.654;2022-10-04T00:52:02;9.73;;;5.17;;
20884;SDS011;10602;48.000;9.654;2022-10-04T00:54:33;8.43;;;5.30;;
20884;SDS011;10602;48.000;9.654;2022-10-04T00:57:16;6.47;;;5.13;;
20884;SDS011;10602;48.000;9.654;2022-10-04T00:59:43;8.03;;;5.43;;
20884;SDS011;10602;48.000;9.654;2022-10-04T01:02:17;7.20;;;5.20;;
20884;SDS011;10602;48.000;9.654;2022-10-04T01:07:26;7.37;;;5.20;;
20884;SDS011;10602;48.000;9.654;2022-10-04T01:09:56;5.83;;;4.87;;
20884;SDS011;10602;48.000;9.654;2022-10-04T01:12:36;7.07;;;4.83;;
20884;SDS011;10602;48.000;9.654;2022-10-04T01:15:21;7.43;;;5.30;;
20884;SDS011;10602;48.000;9.654;2022-10-04T01:18:12;8.73;;;5.97;;
20884;SDS011;10602;48.000;9.654;2022-10-04T01:20:58;7.70;;;5.60;;
20884;SDS011;10602;48.000;9.654;2022-10-04T01:26:04;8.27;;;5.80;;
20884;SDS011;10602;48.000;9.654;2022-10-04T01:28:32;8.17;;;5.53;;
20884;SDS011;10602;48.000;9.654;2022-10-04T01:31:01;11.00;;;5.23;;
20884;SDS011;10602;48.000;9.654;2022-10-04T01:33:28;7.57;;;5.67;;
20884;SDS011;10602;48.000;9.654;2022-10-04T01:35:56;7.73;;;5.30;;
20884;SDS011;10602;48.000;9.654;2022-10-04T01:38:23;8.30;;;4.90;;
20884;SDS011;10602;48.000;9.654;2022-10-04T01:40:53;6.23;;;5.37;;
20884;SDS011;10602;48.000;9.654;2022-10-04T01:43:22;8.07;;;5.77;;
20884;SDS011;10602;48.000;9.654;2022-10-04T01:45:53;8.67;;;5.63;;
20884;SDS011;10602;48.000;9.654;2022-10-04T01:48:26;6.63;;;5.27;;
20884;SDS011;10602;48.000;9.654;2022-10-04T01:51:01;8.23;;;5.77;;
20884;SDS011;10602;48.000;9.654;2022-10-04T01:53:30;8.10;;;5.30;;
20884;SDS011;10602;48.000;9.654;2022-10-04T01:56:08;10.07;;;5.77;;
20884;SDS011;10602;48.000;9.654;2022-10-04T01:58:40;7.50;;;5.23;;
20884;SDS011;10602;48.000;9.654;2022-10-04T02:01:24;7.43;;;5.10;;
20884;SDS011;10602;48.000;9.654;2022-10-04T02:03:56;7.83;;;5.87;;
20884;SDS011;10602;48.000;9.654;2022-10-04T02:06:28;8.57;;;5.27;;
20884;SDS011;10602;48.000;9.654;2022-10-04T02:08:58;7.87;;;4.90;;
20884;SDS011;10602;48.000;9.654;2022-10-04T02:11:27;8.03;;;5.27;;
20884;SDS011;10602;48.000;9.654;2022-10-04T02:13:55;7.30;;;5.13;;
20884;SDS011;10602;48.000;9.654;2022-10-04T02:16:25;8.00;;;5.00;;
20884;SDS011;10602;48.000;9.654;2022-10-04T02:18:53;6.40;;;4.97;;
20884;SDS011;10602;48.000;9.654;2022-10-04T02:21:21;6.30;;;5.00;;
20884;SDS011;10602;48.000;9.654;2022-10-04T02:23:50;6.00;;;5.07;;
20884;SDS011;10602;48.000;9.654;2022-10-04T02:26:18;8.70;;;5.23;;
20884;SDS011;10602;48.000;9.654;2022-10-04T02:28:47;7.37;;;5.07;;
20884;SDS011;10602;48.000;9.654;2022-10-04T02:31:15;7.40;;;5.23;;
20884;SDS011;10602;48.000;9.654;2022-10-04T02:34:03;8.57;;;4.87;;
20884;SDS011;10602;48.000;9.654;2022-10-04T02:36:31;7.73;;;4.90;;
20884;SDS011;10602;48.000;9.654;2022-10-04T02:39:00;6.77;;;5.17;;
20884;SDS011;10602;48.000;9.654;2022-10-04T02:41:31;7.43;;;5.60;;
20884;SDS011;10602;48.000;9.654;2022-10-04T02:44:03;7.20;;;5.17;;
20884;SDS011;10602;48.000;9.654;2022-10-04T02:46:48;6.20;;;4.83;;
20884;SDS011;10602;48.000;9.654;2022-10-04T02:49:30;5.77;;;4.70;;
20884;SDS011;10602;48.000;9.654;2022-10-04T02:52:06;6.47;;;5.20;;
20884;SDS011;10602;48.000;9.654;2022-10-04T02:54:38;5.00;;;4.47;;
20884;SDS011;10602;48.000;9.654;2022-10-04T02:57:16;5.00;;;4.40;;
20884;SDS011;10602;48.000;9.654;2022-10-04T02:59:46;5.43;;;4.43;;
20884;SDS011;10602;48.000;9.654;2022-10-04T03:02:21;4.97;;;4.47;;
20884;SDS011;10602;48.000;9.654;2022-10-04T03:04:53;5.80;;;4.97;;
20884;SDS011;10602;48.000;9.654;2022-10-04T03:07:23;4.20;;;3.80;;
20884;SDS011;10602;48.000;9.654;2022-10-04T03:09:52;5.73;;;4.43;;
20884;SDS011;10602;48.000;9.654;2022-10-04T03:12:20;9.90;;;4.27;;
20884;SDS011;10602;48.000;9.654;2022-10-04T03:14:48;5.57;;;4.40;;
20884;SDS011;10602;48.000;9.654;2022-10-04T03:17:20;5.93;;;4.00;;
20884;SDS011;10602;48.000;9.654;2022-10-04T03:19:48;6.27;;;4.63;;
20884;SDS011;10602;48.000;9.654;2022-10-04T03:22:16;6.07;;;4.83;;
20884;SDS011;10602;48.000;9.654;2022-10-04T03:24:46;5.67;;;4.10;;
20884;SDS011;10602;48.000;9.654;2022-10-04T03:27:20;5.60;;;4.43;;
20884;SDS011;10602;48.000;9.654;2022-10-04T03:29:49;4.70;;;4.30;;
20884;SDS011;10602;48.000;9.654;2022-10-04T03:32:18;5.30;;;4.33;;
20884;SDS011;10602;48.000;9.654;2022-10-04T03:34:49;5.20;;;4.67;;
20884;SDS011;10602;48.000;9.654;2022-10-04T03:37:29;6.27;;;4.57;;
20884;SDS011;10602;48.000;9.654;2022-10-04T03:39:59;5.07;;;4.03;;
20884;SDS011;10602;48.000;9.654;2022-10-04T03:42:29;5.13;;;4.33;;
20884;SDS011;10602;48.000;9.654;2022-10-04T03:44:59;4.83;;;4.00;;
20884;SDS011;10602;48.000;9.654;2022-10-04T03:47:32;5.17;;;4.67;;
20884;SDS011;10602;48.000;9.654;2022-10-04T03:50:04;5.23;;;4.33;;
20884;SDS011;10602;48.000;9.654;2022-10-04T03:52:32;6.00;;;4.70;;
20884;SDS011;10602;48.000;9.654;2022-10-04T03:55:03;5.77;;;4.43;;
20884;SDS011;10602;48.000;9.654;2022-10-04T03:57:32;5.40;;;4.53;;
20884;SDS011;10602;48.000;9.654;2022-10-04T04:00:03;4.87;;;4.27;;
20884;SDS011;10602;48.000;9.654;2022-10-04T04:02:33;6.80;;;4.60;;
20884;SDS011;10602;48.000;9.654;2022-10-04T04:07:45;5.73;;;4.73;;
20884;SDS011;10602;48.000;9.654;2022-10-04T04:10:30;5.20;;;4.70;;
20884;SDS011;10602;48.000;9.654;2022-10-04T04:13:02;5.10;;;4.60;;
20884;SDS011;10602;48.000;9.654;2022-10-04T04:15:43;4.50;;;4.10;;
20884;SDS011;10602;48.000;9.654;2022-10-04T04:18:30;6.13;;;4.70;;
20884;SDS011;10602;48.000;9.654;2022-10-04T04:20:44;5.17;;;4.67;;
20884;SDS011;10602;48.000;9.654;2022-10-04T04:23:33;6.23;;;5.07;;
20884;SDS011;10602;48.000;9.654;2022-10-04T04:26:11;7.53;;;5.10;;
20884;SDS011;10602;48.000;9.654;2022-10-04T04:31:27;5.30;;;4.73;;
20884;SDS011;10602;48.000;9.654;2022-10-04T04:33:58;6.87;;;4.60;;
20884;SDS011;10602;48.000;9.654;2022-10-04T04:36:38;6.83;;;4.43;;
20884;SDS011;10602;48.000;9.654;2022-10-04T04:39:12;5.20;;;4.70;;
20884;SDS011;10602;48.000;9.654;2022-10-04T04:41:57;6.53;;;4.87;;
20884;SDS011;10602;48.000;9.654;2022-10-04T04:44:26;5.97;;;5.33;;
20884;SDS011;10602;48.000;9.654;2022-10-04T04:46:54;5.80;;;4.97;;
20884;SDS011;10602;48.000;9.654;2022-10-04T04:49:23;6.03;;;5.27;;
20884;SDS011;10602;48.000;9.654;2022-10-04T04:51:52;6.73;;;5.30;;
20884;SDS011;10602;48.000;9.654;2022-10-04T04:54:21;7.43;;;5.50;;
20884;SDS011;10602;48.000;9.654;2022-10-04T04:56:51;5.90;;;5.07;;
20884;SDS011;10602;48.000;9.654;2022-10-04T04:59:20;6.37;;;4.87;;
20884;SDS011;10602;48.000;9.654;2022-10-04T05:01:50;6.80;;;5.30;;
20884;SDS011;10602;48.000;9.654;2022-10-04T05:04:18;8.13;;;5.20;;
20884;SDS011;10602;48.000;9.654;2022-10-04T05:06:59;7.50;;;5.13;;
20884;SDS011;10602;48.000;9.654;2022-10-04T05:12:04;6.17;;;5.53;;
20884;SDS011;10602;48.000;9.654;2022-10-04T05:14:40;6.80;;;5.67;;
20884;SDS011;10602;48.000;9.654;2022-10-04T05:17:14;9.60;;;5.63;;
20884;SDS011;10602;48.000;9.654;2022-10-04T05:19:42;8.93;;;6.33;;
20884;SDS011;10602;48.000;9.654;2022-10-04T05:22:11;13.10;;;7.93;;
20884;SDS011;10602;48.000;9.654;2022-10-04T05:24:41;13.90;;;7.97;;
20884;SDS011;10602;48.000;9.654;2022-10-04T05:27:16;11.63;;;7.47;;
20884;SDS011;10602;48.000;9.654;2022-10-04T05:30:05;8.60;;;6.47;;
20884;SDS011;10602;48.000;9.654;2022-10-04T05:32:32;7.63;;;6.33;;
20884;SDS011;10602;48.000;9.654;2022-10-04T05:34:58;8.40;;;6.60;;
20884;SDS011;10602;48.000;9.654;2022-10-04T05:40:22;6.97;;;6.27;;
20884;SDS011;10602;48.000;9.654;2022-10-04T05:42:56;10.17;;;5.60;;
20884;SDS011;10602;48.000;9.654;2022-10-04T05:45:27;5.50;;;5.00;;
20884;SDS011;10602;48.000;9.654;2022-10-04T05:47:57;6.37;;;5.47;;
20884;SDS011;10602;48.000;9.654;2022-10-04T05:50:34;6.60;;;4.63;;
20884;SDS011;10602;48.000;9.654;2022-10-04T05:58:38;6.00;;;4.27;;
20884;SDS011;10602;48.000;9.654;2022-10-04T06:03:47;4.53;;;4.00;;
20884;SDS011;10602;48.000;9.654;2022-10-04T06:06:40;4.73;;;4.33;;
20884;SDS011;10602;48.000;9.654;2022-10-04T06:09:20;4.53;;;4.13;;
20884;SDS011;10602;48.000;9.654;2022-10-04T06:20:24;7.13;;;3.63;;
20884;SDS011;10602;48.000;9.654;2022-10-04T06:23:00;4.00;;;3.67;;
20884;SDS011;10602;48.000;9.654;2022-10-04T06:25:41;4.73;;;4.23;;
20884;SDS011;10602;48.000;9.654;2022-10-04T06:28:12;4.57;;;4.03;;
20884;SDS011;10602;48.000;9.654;2022-10-04T06:30:44;4.80;;;4.30;;
20884;SDS011;10602;48.000;9.654;2022-10-04T06:33:26;4.70;;;4.30;;
20884;SDS011;10602;48.000;9.654;2022-10-04T06:35:57;4.40;;;4.00;;
20884;SDS011;10602;48.000;9.654;2022-10-04T06:38:21;4.47;;;4.07;;
20884;SDS011;10602;48.000;9.654;2022-10-04T06:41:08;5.83;;;4.00;;
20884;SDS011;10602;48.000;9.654;2022-10-04T06:44:01;4.53;;;4.13;;
20884;SDS011;10602;48.000;9.654;2022-10-04T06:46:47;4.90;;;4.47;;
20884;SDS011;10602;48.000;9.654;2022-10-04T07:00:40;4.17;;;3.77;;
20884;SDS011;10602;48.000;9.654;2022-10-04T07:03:11;3.93;;;3.60;;
20884;SDS011;10602;48.000;9.654;2022-10-04T07:05:45;3.70;;;3.40;;
20884;SDS011;10602;48.000;9.654;2022-10-04T07:08:25;6.23;;;3.40;;
20884;SDS011;10602;48.000;9.654;2022-10-04T07:10:58;4.20;;;3.50;;
20884;SDS011;10602;48.000;9.654;2022-10-04T07:13:36;4.40;;;4.00;;
20884;SDS011;10602;48.000;9.654;2022-10-04T07:27:49;4.97;;;4.20;;
20884;SDS011;10602;48.000;9.654;2022-10-04T07:33:34;5.40;;;4.30;;
20884;SDS011;10602;48.000;9.654;2022-10-04T07:36:08;5.00;;;4.50;;
20884;SDS011;10602;48.000;9.654;2022-10-04T07:38:45;4.63;;;4.00;;
20884;SDS011;10602;48.000;9.654;2022-10-04T07:44:13;4.60;;;4.20;;
20884;SDS011;10602;48.000;9.654;2022-10-04T07:46:48;6.40;;;4.33;;
20884;SDS011;10602;48.000;9.654;2022-10-04T07:49:18;4.47;;;4.07;;
20884;SDS011;10602;48.000;9.654;2022-10-04T07:52:05;4.97;;;4.40;;
20884;SDS011;10602;48.000;9.654;2022-10-04T08:00:27;5.90;;;4.90;;
20884;SDS011;10602;48.000;9.654;2022-10-04T08:03:21;5.33;;;4.43;;
20884;SDS011;10602;48.000;9.654;2022-10-04T08:06:15;5.40;;;4.50;;
20884;SDS011;10602;48.000;9.654;2022-10-04T08:11:49;4.93;;;4.10;;
20884;SDS011;10602;48.000;9.654;2022-10-04T08:14:26;5.43;;;4.30;;
20884;SDS011;10602;48.000;9.654;2022-10-04T08:20:10;5.90;;;4.50;;
20884;SDS011;10602;48.000;9.654;2022-10-04T08:22:41;6.97;;;4.30;;
20884;SDS011;10602;48.000;9.654;2022-10-04T08:25:17;6.10;;;4.60;;
20884;SDS011;10602;48.000;9.654;2022-10-04T08:27:51;7.90;;;4.73;;
20884;SDS011;10602;48.000;9.654;2022-10-04T08:39:27;6.37;;;4.87;;
20884;SDS011;10602;48.000;9.654;2022-10-04T08:42:14;11.30;;;5.40;;
20884;SDS011;10602;48.000;9.654;2022-10-04T08:45:09;6.70;;;4.83;;
20884;SDS011;10602;48.000;9.654;2022-10-04T08:48:06;7.27;;;4.40;;
20884;SDS011;10602;48.000;9.654;2022-10-04T08:56:23;5.50;;;5.00;;
20884;SDS011;10602;48.000;9.654;2022-10-04T09:13:28;5.00;;;4.43;;
20884;SDS011;10602;48.000;9.654;2022-10-04T09:22:17;9.27;;;5.43;;
20884;SDS011;10602;48.000;9.654;2022-10-04T09:25:05;5.97;;;4.90;;
20884;SDS011;10602;48.000;9.654;2022-10-04T09:27:47;7.43;;;5.70;;
20884;SDS011;10602;48.000;9.654;2022-10-04T09:30:16;7.80;;;5.20;;
20884;SDS011;10602;48.000;9.654;2022-10-04T09:35:34;6.33;;;4.83;;
20884;SDS011;10602;48.000;9.654;2022-10-04T09:41:09;9.00;;;5.27;;
20884;SDS011;10602;48.000;9.654;2022-10-04T09:43:52;7.33;;;4.60;;
20884;SDS011;10602;48.000;9.654;2022-10-04T09:46:46;7.10;;;5.27;;
20884;SDS011;10602;48.000;9.654;2022-10-04T10:00:42;6.83;;;5.07;;
20884;SDS011;10602;48.000;9.654;2022-10-04T10:03:19;4.60;;;4.20;;
20884;SDS011;10602;48.000;9.654;2022-10-04T10:08:54;6.23;;;4.83;;
20884;SDS011;10602;48.000;9.654;2022-10-04T10:11:24;7.83;;;5.13;;
20884;SDS011;10602;48.000;9.654;2022-10-04T10:33:59;5.40;;;3.97;;
20884;SDS011;10602;48.000;9.654;2022-10-04T10:36:37;4.50;;;3.80;;
20884;SDS011;10602;48.000;9.654;2022-10-04T10:44:58;4.90;;;3.57;;
20884;SDS011;10602;48.000;9.654;2022-10-04T10:47:53;3.80;;;3.50;;
20884;SDS011;10602;48.000;9.654;2022-10-04T10:50:50;5.23;;;4.73;;
20884;SDS011;10602;48.000;9.654;2022-10-04T10:59:00;4.27;;;3.87;;
20884;SDS011;10602;48.000;9.654;2022-10-04T11:01:38;6.03;;;3.97;;
20884;SDS011;10602;48.000;9.654;2022-10-04T11:04:32;4.50;;;3.87;;
20884;SDS011;10602;48.000;9.654;2022-10-04T11:07:23;3.83;;;3.40;;
20884;SDS011;10602;48.000;9.654;2022-10-04T11:20:54;4.77;;;3.67;;
20884;SDS011;10602;48.000;9.654;2022-10-04T11:26:42;4.63;;;3.73;;
20884;SDS011;10602;48.000;9.654;2022-10-04T11:40:17;3.53;;;3.23;;
20884;SDS011;10602;48.000;9.654;2022-10-04T11:43:14;3.73;;;2.80;;
20884;SDS011;10602;48.000;9.654;2022-10-04T11:52:08;3.17;;;2.83;;
20884;SDS011;10602;48.000;9.654;2022-10-04T11:57:24;3.13;;;2.57;;
20884;SDS011;10602;48.000;9.654;2022-10-04T12:26:43;2.20;;;2.00;;
20884;SDS011;10602;48.000;9.654;2022-10-04T12:32:09;2.20;;;1.90;;
20884;SDS011;10602;48.000;9.654;2022-10-04T12:34:56;2.07;;;1.40;;
20884;SDS011;10602;48.000;9.654;2022-10-04T12:37:58;1.80;;;1.60;;
20884;SDS011;10602;48.000;9.654;2022-10-04T12:42:57;1.37;;;1.27;;
20884;SDS011;10602;48.000;9.654;2022-10-04T12:56:03;2.17;;;1.83;;
20884;SDS011;10602;48.000;9.654;2022-10-04T13:01:14;2.10;;;1.80;;
20884;SDS011;10602;48.000;9.654;2022-10-04T13:04:06;2.33;;;2.00;;
20884;SDS011;10602;48.000;9.654;2022-10-04T13:07:05;2.80;;;1.80;;
20884;SDS011;10602;48.000;9.654;2022-10-04T13:09:56;2.60;;;1.97;;
20884;SDS011;10602;48.000;9.654;2022-10-04T13:18:08;2.30;;;2.10;;
20884;SDS011;10602;48.000;9.654;2022-10-04T13:28:59;3.57;;;2.00;;
20884;SDS011;10602;48.000;9.654;2022-10-04T13:31:50;3.00;;;2.23;;
20884;SDS011;10602;48.000;9.654;2022-10-04T13:39:45;2.27;;;1.97;;
20884;SDS011;10602;48.000;9.654;2022-10-04T13:53:39;3.53;;;2.20;;
20884;SDS011;10602;48.000;9.654;2022-10-04T13:56:18;2.50;;;2.07;;
20884;SDS011;10602;48.000;9.654;2022-10-04T13:59:01;2.40;;;1.90;;
20884;SDS011;10602;48.000;9.654;2022-10-04T14:10:21;2.47;;;1.97;;
20884;SDS011;10602;48.000;9.654;2022-10-04T14:15:54;2.30;;;2.10;;
20884;SDS011;10602;48.000;9.654;2022-10-04T14:18:41;2.40;;;1.90;;
20884;SDS011;10602;48.000;9.654;2022-10-04T14:21:16;2.43;;;1.93;;
20884;SDS011;10602;48.000;9.654;2022-10-04T14:24:02;2.13;;;1.93;;
20884;SDS011;10602;48.000;9.654;2022-10-04T14:29:36;2.10;;;1.90;;
20884;SDS011;10602;48.000;9.654;2022-10-04T14:34:59;2.00;;;1.90;;
20884;SDS011;10602;48.000;9.654;2022-10-04T14:41:09;2.00;;;1.80;;
20884;SDS011;10602;48.000;9.654;2022-10-04T14:45:58;2.20;;;1.70;;
20884;SDS011;10602;48.000;9.654;2022-10-04T14:48:40;3.00;;;1.90;;
20884;SDS011;10602;48.000;9.654;2022-10-04T15:04:31;2.37;;;2.00;;
20884;SDS011;10602;48.000;9.654;2022-10-04T15:07:22;2.57;;;1.97;;
20884;SDS011;10602;48.000;9.654;2022-10-04T15:15:32;2.23;;;1.93;;
20884;SDS011;10602;48.000;9.654;2022-10-04T15:18:10;2.37;;;1.80;;
20884;SDS011;10602;48.000;9.654;2022-10-04T15:21:00;1.97;;;1.77;;
20884;SDS011;10602;48.000;9.654;2022-10-04T15:23:29;4.53;;;1.90;;
20884;SDS011;10602;48.000;9.654;2022-10-04T15:31:29;3.60;;;2.03;;
20884;SDS011;10602;48.000;9.654;2022-10-04T15:39:48;2.73;;;2.00;;
20884;SDS011;10602;48.000;9.654;2022-10-04T15:48:20;4.67;;;2.10;;
20884;SDS011;10602;48.000;9.654;2022-10-04T15:50:55;3.33;;;2.00;;
20884;SDS011;10602;48.000;9.654;2022-10-04T15:56:40;3.33;;;2.47;;
20884;SDS011;10602;48.000;9.654;2022-10-04T16:04:40;6.40;;;3.30;;
20884;SDS011;10602;48.000;9.654;2022-10-04T16:13:33;9.33;;;3.30;;
20884;SDS011;10602;48.000;9.654;2022-10-04T16:34:45;12.40;;;4.10;;
20884;SDS011;10602;48.000;9.654;2022-10-04T16:42:55;4.70;;;2.47;;
20884;SDS011;10602;48.000;9.654;2022-10-04T16:56:25;2.50;;;2.30;;
20884;SDS011;10602;48.000;9.654;2022-10-04T16:59:56;5.03;;;3.90;;
20884;SDS011;10602;48.000;9.654;2022-10-04T17:04:16;8.20;;;5.77;;
20884;SDS011;10602;48.000;9.654;2022-10-04T17:09:28;16.97;;;10.60;;
20884;SDS011;10602;48.000;9.654;2022-10-04T17:15:04;9.00;;;6.50;;
20884;SDS011;10602;48.000;9.654;2022-10-04T17:17:41;6.90;;;4.73;;
20884;SDS011;10602;48.000;9.654;2022-10-04T17:20:14;4.93;;;3.33;;
20884;SDS011;10602;48.000;9.654;2022-10-04T17:28:18;7.70;;;4.83;;
20884;SDS011;10602;48.000;9.654;2022-10-04T17:36:36;4.53;;;3.90;;
20884;SDS011;10602;48.000;9.654;2022-10-04T17:39:16;4.83;;;4.27;;
20884;SDS011;10602;48.000;9.654;2022-10-04T17:44:35;7.10;;;5.60;;
20884;SDS011;10602;48.000;9.654;2022-10-04T17:47:08;12.27;;;6.70;;
20884;SDS011;10602;48.000;9.654;2022-10-04T17:49:40;8.60;;;6.57;;
20884;SDS011;10602;48.000;9.654;2022-10-04T17:52:33;14.73;;;9.50;;
20884;SDS011;10602;48.000;9.654;2022-10-04T17:55:28;15.27;;;10.10;;
20884;SDS011;10602;48.000;9.654;2022-10-04T17:58:01;14.13;;;10.07;;
20884;SDS011;10602;48.000;9.654;2022-10-04T18:00:45;14.77;;;9.03;;
20884;SDS011;10602;48.000;9.654;2022-10-04T18:03:18;11.57;;;8.73;;
20884;SDS011;10602;48.000;9.654;2022-10-04T18:05:51;9.73;;;7.53;;
20884;SDS011;10602;48.000;9.654;2022-10-04T18:11:19;8.77;;;6.43;;
20884;SDS011;10602;48.000;9.654;2022-10-04T18:13:56;6.87;;;5.90;;
20884;SDS011;10602;48.000;9.654;2022-10-04T18:19:28;7.47;;;5.97;;
20884;SDS011;10602;48.000;9.654;2022-10-04T18:21:33;9.43;;;7.90;;
20884;SDS011;10602;48.000;9.654;2022-10-04T18:26:58;22.73;;;17.00;;
20884;SDS011;10602;48.000;9.654;2022-10-04T18:29:36;16.37;;;11.20;;
20884;SDS011;10602;48.000;9.654;2022-10-04T18:32:13;14.27;;;11.13;;
20884;SDS011;10602;48.000;9.654;2022-10-04T18:34:42;12.57;;;9.30;;
20884;SDS011;10602;48.000;9.654;2022-10-04T18:37:17;11.17;;;7.47;;
20884;SDS011;10602;48.000;9.654;2022-10-04T18:42:54;7.80;;;7.00;;
20884;SDS011;10602;48.000;9.654;2022-10-04T18:45:24;9.73;;;7.23;;
20884;SDS011;10602;48.000;9.654;2022-10-04T18:47:53;11.20;;;9.80;;
20884;SDS011;10602;48.000;9.654;2022-10-04T18:55:48;15.30;;;10.93;;
20884;SDS011;10602;48.000;9.654;2022-10-04T19:07:39;9.77;;;6.50;;
20884;SDS011;10602;48.000;9.654;2022-10-04T19:10:15;8.03;;;6.80;;
20884;SDS011;10602;48.000;9.654;2022-10-04T19:15:38;8.23;;;5.90;;
20884;SDS011;10602;48.000;9.654;2022-10-04T19:21:23;4.57;;;3.70;;
20884;SDS011;10602;48.000;9.654;2022-10-04T19:26:58;5.97;;;5.07;;
20884;SDS011;10602;48.000;9.654;2022-10-04T19:32:23;10.20;;;6.83;;
20884;SDS011;10602;48.000;9.654;2022-10-04T19:37:48;14.80;;;10.13;;
20884;SDS011;10602;48.000;9.654;2022-10-04T19:43:16;18.47;;;11.97;;
20884;SDS011;10602;48.000;9.654;2022-10-04T19:46:00;18.17;;;12.00;;
20884;SDS011;10602;48.000;9.654;2022-10-04T19:48:26;20.37;;;11.93;;
20884;SDS011;10602;48.000;9.654;2022-10-04T19:51:00;18.07;;;10.87;;
20884;SDS011;10602;48.000;9.654;2022-10-04T19:53:35;15.50;;;10.60;;
20884;SDS011;10602;48.000;9.654;2022-10-04T19:56:06;12.43;;;9.13;;
20884;SDS011;10602;48.000;9.654;2022-10-04T19:58:38;13.33;;;9.73;;
20884;SDS011;10602;48.000;9.654;2022-10-04T20:01:11;12.43;;;8.30;;
20884;SDS011;10602;48.000;9.654;2022-10-04T20:03:44;11.70;;;8.53;;
20884;SDS011;10602;48.000;9.654;2022-10-04T20:06:20;12.60;;;8.50;;
20884;SDS011;10602;48.000;9.654;2022-10-04T20:08:53;10.80;;;8.20;;
20884;SDS011;10602;48.000;9.654;2022-10-04T20:11:44;9.37;;;7.63;;
20884;SDS011;10602;48.000;9.654;2022-10-04T20:35:07;10.57;;;8.17;;
20884;SDS011;10602;48.000;9.654;2022-10-04T20:45:41;8.90;;;7.40;;
20884;SDS011;10602;48.000;9.654;2022-10-04T20:48:18;9.13;;;7.47;;
20884;SDS011;10602;48.000;9.654;2022-10-04T20:50:51;8.90;;;6.93;;
20884;SDS011;10602;48.000;9.654;2022-10-04T20:53:20;11.07;;;8.73;;
20884;SDS011;10602;48.000;9.654;2022-10-04T20:55:50;8.70;;;6.57;;
20884;SDS011;10602;48.000;9.654;2022-10-04T20:58:26;8.70;;;7.17;;
20884;SDS011;10602;48.000;9.654;2022-10-04T21:00:59;9.23;;;6.83;;
20884;SDS011;10602;48.000;9.654;2022-10-04T21:03:30;8.07;;;6.47;;
20884;SDS011;10602;48.000;9.654;2022-10-04T21:06:05;8.00;;;6.47;;
20884;SDS011;10602;48.000;9.654;2022-10-04T21:08:35;9.33;;;6.53;;
20884;SDS011;10602;48.000;9.654;2022-10-04T21:11:14;11.07;;;8.47;;
20884;SDS011;10602;48.000;9.654;2022-10-04T21:13:55;10.37;;;7.47;;
20884;SDS011;10602;48.000;9.654;2022-10-04T21:16:36;11.73;;;7.77;;
20884;SDS011;10602;48.000;9.654;2022-10-04T21:22:09;9.40;;;6.57;;
20884;SDS011;10602;48.000;9.654;2022-10-04T21:24:34;6.70;;;5.57;;
20884;SDS011;10602;48.000;9.654;2022-10-04T21:27:07;9.23;;;5.40;;
20884;SDS011;10602;48.000;9.654;2022-10-04T21:29:36;8.30;;;5.30;;
20884;SDS011;10602;48.000;9.654;2022-10-04T21:32:04;7.00;;;5.37;;
20884;SDS011;10602;48.000;9.654;2022-10-04T21:34:32;7.13;;;5.10;;
20884;SDS011;10602;48.000;9.654;2022-10-04T21:37:00;7.57;;;5.73;;
20884;SDS011;10602;48.000;9.654;2022-10-04T21:39:32;5.73;;;5.00;;
20884;SDS011;10602;48.000;9.654;2022-10-04T21:42:00;8.27;;;6.03;;
20884;SDS011;10602;48.000;9.654;2022-10-04T21:44:27;8.37;;;6.03;;
20884;SDS011;10602;48.000;9.654;2022-10-04T21:46:55;8.50;;;5.43;;
20884;SDS011;10602;48.000;9.654;2022-10-04T21:49:22;7.03;;;5.43;;
20884;SDS011;10602;48.000;9.654;2022-10-04T21:51:50;10.97;;;6.07;;
20884;SDS011;10602;48.000;9.654;2022-10-04T21:54:17;10.47;;;6.03;;
20884;SDS011;10602;48.000;9.654;2022-10-04T21:56:45;9.43;;;6.00;;
20884;SDS011;10602;48.000;9.654;2022-10-04T21:59:12;10.93;;;6.50;;
20884;SDS011;10602;48.000;9.654;2022-10-04T22:01:40;11.53;;;6.30;;
20884;SDS011;10602;48.000;9.654;2022-10-04T22:04:07;13.10;;;6.50;;
20884;SDS011;10602;48.000;9.654;2022-10-04T22:06:35;12.77;;;6.90;;
20884;SDS011;10602;48.000;9.654;2022-10-04T22:09:03;17.23;;;8.40;;
20884;SDS011;10602;48.000;9.654;2022-10-04T22:11:30;12.63;;;7.40;;
20884;SDS011;10602;48.000;9.654;2022-10-04T22:13:58;12.87;;;7.97;;
20884;SDS011;10602;48.000;9.654;2022-10-04T22:16:25;12.53;;;7.93;;
20884;SDS011;10602;48.000;9.654;2022-10-04T22:18:53;11.43;;;7.07;;
20884;SDS011;10602;48.000;9.654;2022-10-04T22:21:21;8.67;;;6.67;;
20884;SDS011;10602;48.000;9.654;2022-10-04T22:23:48;11.70;;;7.10;;
20884;SDS011;10602;48.000;9.654;2022-10-04T22:26:17;13.17;;;7.77;;
20884;SDS011;10602;48.000;9.654;2022-10-04T22:28:47;11.90;;;7.03;;
20884;SDS011;10602;48.000;9.654;2022-10-04T22:31:18;19.17;;;7.20;;
20884;SDS011;10602;48.000;9.654;2022-10-04T22:33:50;12.23;;;6.97;;
20884;SDS011;10602;48.000;9.654;2022-10-04T22:36:21;16.40;;;6.80;;
20884;SDS011;10602;48.000;9.654;2022-10-04T22:38:55;15.67;;;7.00;;
20884;SDS011;10602;48.000;9.654;2022-10-04T22:41:44;14.00;;;6.73;;
20884;SDS011;10602;48.000;9.654;2022-10-04T22:44:19;14.10;;;5.93;;
20884;SDS011;10602;48.000;9.654;2022-10-04T22:46:52;24.37;;;6.93;;
20884;SDS011;10602;48.000;9.654;2022-10-04T22:49:25;13.27;;;6.00;;
20884;SDS011;10602;48.000;9.654;2022-10-04T22:51:57;12.80;;;6.70;;
20884;SDS011;10602;48.000;9.654;2022-10-04T22:54:29;14.50;;;6.40;;
20884;SDS011;10602;48.000;9.654;2022-10-04T22:56:57;12.70;;;6.47;;
20884;SDS011;10602;48.000;9.654;2022-10-04T22:59:26;14.60;;;6.07;;
20884;SDS011;10602;48.000;9.654;2022-10-04T23:01:58;11.77;;;6.70;;
20884;SDS011;10602;48.000;9.654;2022-10-04T23:04:28;14.27;;;6.80;;
20884;SDS011;10602;48.000;9.654;2022-10-04T23:06:55;11.47;;;5.87;;
20884;SDS011;10602;48.000;9.654;2022-10-04T23:09:23;14.33;;;6.40;;
20884;SDS011;10602;48.000;9.654;2022-10-04T23:11:50;16.80;;;7.13;;
20884;SDS011;10602;48.000;9.654;2022-10-04T23:14:18;11.43;;;7.07;;
20884;SDS011;10602;48.000;9.654;2022-10-04T23:16:45;12.13;;;6.63;;
20884;SDS011;10602;48.000;9.654;2022-10-04T23:19:16;14.63;;;6.47;;
20884;SDS011;10602;48.000;9.654;2022-10-04T23:21:48;10.80;;;6.43;;
20884;SDS011;10602;48.000;9.654;2022-10-04T23:24:20;10.77;;;5.90;;
20884;SDS011;10602;48.000;9.654;2022-10-04T23:26:54;9.90;;;5.50;;
20884;SDS011;10602;48.000;9.654;2022-10-04T23:29:26;8.90;;;6.10;;
20884;SDS011;10602;48.000;9.654;2022-10-04T23:31:56;13.23;;;6.07;;
20884;SDS011;10602;48.000;9.654;2022-10-04T23:34:39;14.83;;;7.03;;